createdAt,value
2023-05-09T00:02:26.029Z,101933.63
2023-05-09T00:04:53.789Z,101900.47
2023-05-09T00:07:25.024Z,101934.63
2023-05-09T00:09:57.163Z,101925.75
2023-05-09T00:12:25.315Z,101965.59
2023-05-09T00:14:52.009Z,101946.09
2023-05-09T00:17:22.929Z,101915.41
2023-05-09T00:19:52.733Z,101967.44
2023-05-09T00:22:24.307Z,101943.72
2023-05-09T00:24:51.233Z,101937.66
2023-05-09T00:27:18.239Z,101895.56
2023-05-09T00:29:50.171Z,101944.56
2023-05-09T00:32:20.672Z,101918.16
2023-05-09T00:34:49.825Z,101919.13
2023-05-09T00:37:21.336Z,101891.91
2023-05-09T00:39:53.215Z,101932.31
2023-05-09T00:42:25.848Z,101923.56
2023-05-09T00:44:52.545Z,101894.50
2023-05-09T00:47:29.533Z,101866.91
2023-05-09T00:50:06.007Z,101878.66
2023-05-09T00:52:37.969Z,101880.19
2023-05-09T00:55:08.310Z,101898.00
2023-05-09T00:57:35.433Z,101896.50
2023-05-09T01:00:15.324Z,101908.69
2023-05-09T01:03:19.095Z,101867.25
2023-05-09T01:05:56.611Z,101921.84
2023-05-09T01:09:11.285Z,101916.63
2023-05-09T01:11:55.247Z,101913.09
2023-05-09T01:14:54.870Z,101912.25
2023-05-09T01:17:41.046Z,101873.69
2023-05-09T01:20:23.986Z,101907.22
2023-05-09T01:23:12.575Z,101838.19
2023-05-09T01:26:42.476Z,101900.16
2023-05-09T01:29:54.946Z,101898.47
2023-05-09T01:32:43.271Z,101838.88
2023-05-09T01:35:14.679Z,101892.28
2023-05-09T01:37:44.676Z,101898.63
2023-05-09T01:40:15.007Z,101886.41
2023-05-09T01:42:45.497Z,101885.41
2023-05-09T01:45:14.490Z,101888.75
2023-05-09T01:47:42.017Z,101882.75
2023-05-09T01:50:12.054Z,101879.88
2023-05-09T01:52:41.555Z,101873.19
2023-05-09T01:55:09.880Z,101876.41
2023-05-09T01:57:37.460Z,101871.19
2023-05-09T02:00:07.968Z,101862.47
2023-05-09T02:02:35.348Z,101866.97
2023-05-09T02:05:02.664Z,101864.16
2023-05-09T02:07:30.177Z,101868.66
2023-05-09T02:09:58.361Z,101858.78
2023-05-09T02:12:25.154Z,101864.16
2023-05-09T02:14:51.875Z,101865.13
2023-05-09T02:17:19.311Z,101853.75
2023-05-09T02:19:46.030Z,101850.06
2023-05-09T02:22:13.545Z,101856.41
2023-05-09T02:24:41.352Z,101846.53
2023-05-09T02:27:10.534Z,101853.75
2023-05-09T02:29:50.608Z,101840.50
2023-05-09T02:32:23.498Z,101847.53
2023-05-09T02:34:53.071Z,101850.38
2023-05-09T02:37:20.698Z,101839.81
2023-05-09T02:39:47.888Z,101838.81
2023-05-09T02:42:25.227Z,101835.28
2023-05-09T02:44:52.913Z,101834.59
2023-05-09T02:47:19.965Z,101838.13
2023-05-09T02:49:46.551Z,101829.59
2023-05-09T02:52:13.125Z,101839.13
2023-05-09T02:54:39.947Z,101832.06
2023-05-09T02:57:06.875Z,101834.75
2023-05-09T02:59:33.773Z,101826.06
2023-05-09T03:02:00.381Z,101826.72
2023-05-09T03:04:27.309Z,101818.88
2023-05-09T03:06:54.003Z,101820.53
2023-05-09T03:09:20.576Z,101813.53
2023-05-09T03:11:47.166Z,101806.47
2023-05-09T03:14:14.958Z,101796.75
2023-05-09T03:16:41.875Z,101802.13
2023-05-09T03:19:08.629Z,101788.72
2023-05-09T03:21:35.170Z,101791.56
2023-05-09T03:24:01.956Z,101788.88
2023-05-09T03:26:28.490Z,101783.69
2023-05-09T03:28:55.012Z,101784.53
2023-05-09T03:31:21.650Z,101774.13
2023-05-09T03:33:48.330Z,101773.97
2023-05-09T03:36:14.902Z,101770.59
2023-05-09T03:38:41.561Z,101774.13
2023-05-09T03:41:08.113Z,101767.91
2023-05-09T03:43:34.716Z,101764.25
2023-05-09T03:46:01.323Z,101760.88
2023-05-09T03:48:27.831Z,101749.34
2023-05-09T03:50:54.492Z,101747.66
2023-05-09T03:53:21.065Z,101740.47
2023-05-09T03:55:47.824Z,101736.94
2023-05-09T03:58:14.932Z,101734.28
2023-05-09T04:00:41.969Z,101734.28
2023-05-09T04:03:08.703Z,101735.44
2023-05-09T04:05:35.495Z,101739.63
2023-05-09T04:08:02.977Z,101734.59
2023-05-09T04:10:30.768Z,101737.94
2023-05-09T04:12:57.508Z,101736.28
2023-05-09T04:15:24.160Z,101733.91
2023-05-09T04:17:50.863Z,101739.13
2023-05-09T04:20:17.568Z,101724.88
2023-05-09T04:22:46.090Z,101721.38
2023-05-09T04:25:14.966Z,101722.38
2023-05-09T04:27:41.653Z,101724.06
2023-05-09T04:30:09.421Z,101722.38
2023-05-09T04:32:36.853Z,101717.31
2023-05-09T04:35:04.201Z,101722.53
2023-05-09T04:37:31.608Z,101722.66
2023-05-09T04:39:58.614Z,101722.53
2023-05-09T04:42:25.196Z,101721.69
2023-05-09T04:44:51.802Z,101720.84
2023-05-09T04:47:18.388Z,101719.16
2023-05-09T04:49:44.936Z,101711.97
2023-05-09T04:52:11.506Z,101708.75
2023-05-09T04:54:38.049Z,101713.94
2023-05-09T04:57:17.146Z,101700.72
2023-05-09T04:59:45.367Z,101706.91
2023-05-09T05:02:13.049Z,101690.03
2023-05-09T05:04:39.805Z,101682.00
2023-05-09T05:07:06.497Z,101685.50
2023-05-09T05:09:33.097Z,101687.34
2023-05-09T05:12:02.295Z,101688.34
2023-05-09T05:14:29.167Z,101687.50
2023-05-09T05:16:55.782Z,101691.00
2023-05-09T05:19:22.296Z,101679.47
2023-05-09T05:21:48.883Z,101681.16
2023-05-09T05:24:15.458Z,101686.34
2023-05-09T05:26:42.060Z,101680.31
2023-05-09T05:29:08.842Z,101663.25
2023-05-09T05:31:36.354Z,101667.75
2023-05-09T05:34:03.135Z,101663.41
2023-05-09T05:36:29.729Z,101658.06
2023-05-09T05:38:56.282Z,101650.16
2023-05-09T05:41:23.500Z,101640.63
2023-05-09T05:43:51.120Z,101649.34
2023-05-09T05:46:19.524Z,101643.28
2023-05-09T05:48:46.169Z,101647.81
2023-05-09T05:51:12.709Z,101641.91
2023-05-09T05:53:39.260Z,101646.81
2023-05-09T05:56:06.108Z,101630.22
2023-05-09T05:58:32.712Z,101634.28
2023-05-09T06:00:59.244Z,101632.06
2023-05-09T06:03:26.090Z,101637.94
2023-05-09T06:05:52.972Z,101630.06
2023-05-09T06:08:19.528Z,101633.59
2023-05-09T06:10:46.113Z,101630.22
2023-05-09T06:13:12.758Z,101621.34
2023-05-09T06:15:39.411Z,101630.91
2023-05-09T06:18:06.032Z,101626.41
2023-05-09T06:20:32.860Z,101632.75
2023-05-09T06:22:59.481Z,101610.81
2023-05-09T06:25:26.013Z,101611.50
2023-05-09T06:27:52.581Z,101607.97
2023-05-09T06:30:26.477Z,101611.34
2023-05-09T06:32:54.803Z,101609.66
2023-05-09T06:35:21.847Z,101603.31
2023-05-09T06:37:49.173Z,101605.84
2023-05-09T06:40:16.938Z,101593.31
2023-05-09T06:42:43.726Z,101593.16
2023-05-09T06:45:10.884Z,101592.97
2023-05-09T06:47:37.511Z,101594.69
2023-05-09T06:50:04.504Z,101585.66
2023-05-09T06:52:31.256Z,101581.28
2023-05-09T06:54:57.807Z,101587.19
2023-05-09T06:57:24.426Z,101573.13
2023-05-09T06:59:51.093Z,101576.47
2023-05-09T07:02:17.715Z,101572.13
2023-05-09T07:04:44.345Z,101572.97
2023-05-09T07:07:10.894Z,101571.97
2023-05-09T07:09:37.654Z,101570.97
2023-05-09T07:12:04.604Z,101563.78
2023-05-09T07:14:31.160Z,101560.09
2023-05-09T07:17:09.856Z,101559.25
2023-05-09T07:19:44.262Z,101558.44
2023-05-09T07:22:10.944Z,101555.59
2023-05-09T07:24:37.544Z,101555.59
2023-05-09T07:27:04.213Z,101550.25
2023-05-09T07:29:30.800Z,101548.56
2023-05-09T07:31:57.487Z,101547.56
2023-05-09T07:34:25.487Z,101559.78
2023-05-09T07:36:52.222Z,101551.78
2023-05-09T07:39:18.904Z,101553.59
2023-05-09T07:41:46.425Z,101550.78
2023-05-09T07:44:15.036Z,101546.41
2023-05-09T07:46:42.211Z,101546.25
2023-05-09T07:49:09.206Z,101542.75
2023-05-09T07:51:35.968Z,101539.38
2023-05-09T07:54:02.616Z,101540.06
2023-05-09T07:56:29.220Z,101531.19
2023-05-09T07:58:56.014Z,101536.34
2023-05-09T08:01:22.581Z,101527.53
2023-05-09T08:03:49.290Z,101525.84
2023-05-09T08:06:15.994Z,101524.84
2023-05-09T08:08:42.567Z,101512.28
2023-05-09T08:11:09.089Z,101510.44
2023-05-09T08:13:35.655Z,101511.28
2023-05-09T08:16:02.801Z,101503.44
2023-05-09T08:18:29.542Z,101497.25
2023-05-09T08:20:56.232Z,101499.56
2023-05-09T08:23:22.806Z,101496.91
2023-05-09T08:25:53.277Z,101486.19
2023-05-09T08:28:20.743Z,101490.53
2023-05-09T08:30:47.504Z,101486.03
2023-05-09T08:33:14.099Z,101478.16
2023-05-09T08:35:40.828Z,101478.00
2023-05-09T08:38:07.415Z,101482.34
2023-05-09T08:40:40.574Z,101470.81
2023-05-09T08:43:07.922Z,101476.00
2023-05-09T08:45:51.448Z,101466.97
2023-05-09T08:48:19.073Z,101469.81
2023-05-09T08:50:45.832Z,101467.81
2023-05-09T08:53:12.696Z,101457.94
2023-05-09T08:55:39.666Z,101456.28
2023-05-09T08:58:07.164Z,101459.63
2023-05-09T09:00:34.594Z,101459.63
2023-05-09T09:03:03.444Z,101455.13
2023-05-09T09:05:41.837Z,101449.75
2023-05-09T09:08:11.110Z,101454.28
2023-05-09T09:10:47.312Z,101447.94
2023-05-09T09:13:15.707Z,101445.41
2023-05-09T09:15:45.168Z,101447.09
2023-05-09T09:18:16.281Z,101445.25
2023-05-09T09:20:51.182Z,101442.56
2023-05-09T09:23:20.624Z,101438.22
2023-05-09T09:25:48.419Z,101433.72
2023-05-09T09:28:15.508Z,101425.84
2023-05-09T09:30:47.555Z,101427.34
2023-05-09T09:33:21.507Z,101428.19
2023-05-09T09:35:52.514Z,101430.88
2023-05-09T09:38:20.710Z,101425.53
2023-05-09T09:40:52.987Z,101425.53
2023-05-09T09:43:19.656Z,101432.88
2023-05-09T09:45:51.062Z,101420.16
2023-05-09T09:48:17.735Z,101422.84
2023-05-09T09:50:47.261Z,101422.84
2023-05-09T09:53:13.785Z,101421.84
2023-05-09T09:55:50.360Z,101418.31
2023-05-09T09:58:18.587Z,101415.66
2023-05-09T10:00:46.255Z,101409.47
2023-05-09T10:03:16.911Z,101403.09
2023-05-09T10:05:43.660Z,101407.47
2023-05-09T10:08:10.753Z,101407.47
2023-05-09T10:10:38.178Z,101405.59
2023-05-09T10:13:08.037Z,101403.75
2023-05-09T10:15:45.510Z,101404.59
2023-05-09T10:18:25.263Z,101398.41
2023-05-09T10:20:53.280Z,101402.91
2023-05-09T10:23:20.928Z,101397.56
2023-05-09T10:26:17.754Z,101396.75
2023-05-09T10:28:49.234Z,101397.56
2023-05-09T10:31:32.560Z,101401.91
2023-05-09T10:34:05.465Z,101388.72
2023-05-09T10:36:32.670Z,101396.56
2023-05-09T10:39:00.466Z,101385.00
2023-05-09T10:41:27.876Z,101381.50
2023-05-09T10:43:57.259Z,101384.00
2023-05-09T10:46:24.974Z,101371.63
2023-05-09T10:48:52.490Z,101368.94
2023-05-09T10:51:19.237Z,101374.16
2023-05-09T10:53:48.563Z,101366.28
2023-05-09T10:56:32.302Z,101362.59
2023-05-09T10:59:00.150Z,101368.94
2023-05-09T11:01:39.080Z,101355.56
2023-05-09T11:04:14.557Z,101363.59
2023-05-09T11:06:41.764Z,101359.28
2023-05-09T11:09:32.721Z,101356.41
2023-05-09T11:12:10.111Z,101352.25
2023-05-09T11:14:48.684Z,101345.91
2023-05-09T11:17:21.817Z,101343.22
2023-05-09T11:19:49.104Z,101343.22
2023-05-09T11:22:19.663Z,101335.19
2023-05-09T11:24:47.614Z,101330.63
2023-05-09T11:27:20.580Z,101332.31
2023-05-09T11:29:55.923Z,101329.63
2023-05-09T11:32:28.549Z,101316.44
2023-05-09T11:35:22.551Z,101320.78
2023-05-09T11:37:52.879Z,101316.44
2023-05-09T11:40:21.750Z,101314.56
2023-05-09T11:42:56.208Z,101312.75
2023-05-09T11:45:27.448Z,101305.75
2023-05-09T11:47:54.598Z,101306.53
2023-05-09T11:50:21.683Z,101303.88
2023-05-09T11:52:49.087Z,101302.03
2023-05-09T11:55:22.695Z,101302.03
2023-05-09T11:57:54.380Z,101305.53
2023-05-09T12:00:23.501Z,101299.34
2023-05-09T12:02:51.507Z,101299.19
2023-05-09T12:05:20.059Z,101291.16
2023-05-09T12:07:47.482Z,101291.16
2023-05-09T12:10:20.125Z,101280.63
2023-05-09T12:12:50.796Z,101284.97
2023-05-09T12:15:18.607Z,101274.25
2023-05-09T12:17:47.398Z,101282.28
2023-05-09T12:20:15.844Z,101275.09
2023-05-09T12:22:43.795Z,101263.72
2023-05-09T12:25:11.915Z,101268.91
2023-05-09T12:27:41.727Z,101272.41
2023-05-09T12:30:10.934Z,101263.56
2023-05-09T12:32:40.376Z,101264.38
2023-05-09T12:35:09.602Z,101269.75
2023-05-09T12:37:36.490Z,101262.38
2023-05-09T12:40:08.674Z,101262.56
2023-05-09T12:42:36.072Z,101264.38
2023-05-09T12:45:04.230Z,101262.56
2023-05-09T12:47:31.898Z,101259.72
2023-05-09T12:49:59.750Z,101254.34
2023-05-09T12:52:33.255Z,101254.34
2023-05-09T12:55:07.046Z,101250.69
2023-05-09T12:57:33.755Z,101246.50
2023-05-09T13:00:01.720Z,101250.69
2023-05-09T13:02:28.791Z,101243.50
2023-05-09T13:05:12.811Z,101240.97
2023-05-09T13:07:45.257Z,101241.66
2023-05-09T13:10:15.429Z,101243.50
2023-05-09T13:12:45.368Z,101239.97
2023-05-09T13:15:12.312Z,101239.13
2023-05-09T13:17:39.008Z,101237.28
2023-05-09T13:20:06.287Z,101241.81
2023-05-09T13:22:33.218Z,101235.47
2023-05-09T13:24:59.980Z,101230.09
2023-05-09T13:27:27.922Z,101226.59
2023-05-09T13:29:54.464Z,101216.72
2023-05-09T13:32:21.191Z,101220.22
2023-05-09T13:34:47.775Z,101213.03
2023-05-09T13:37:14.339Z,101220.06
2023-05-09T13:39:40.957Z,101211.19
2023-05-09T13:42:07.765Z,101208.53
2023-05-09T13:44:34.350Z,101210.38
2023-05-09T13:47:01.041Z,101206.69
2023-05-09T13:49:30.648Z,101201.31
2023-05-09T13:51:57.344Z,101204.00
2023-05-09T13:54:23.855Z,101200.50
2023-05-09T13:56:51.312Z,101200.31
2023-05-09T13:59:17.876Z,101194.13
2023-05-09T14:01:44.688Z,101193.97
2023-05-09T14:04:11.332Z,101189.63
2023-05-09T14:06:37.887Z,101185.94
2023-05-09T14:09:04.455Z,101182.59
2023-05-09T14:11:31.134Z,101186.09
2023-05-09T14:13:57.677Z,101178.91
2023-05-09T14:16:24.410Z,101174.38
2023-05-09T14:18:50.995Z,101175.22
2023-05-09T14:21:17.544Z,101170.03
2023-05-09T14:23:44.080Z,101167.19
2023-05-09T14:26:10.692Z,101162.69
2023-05-09T14:28:38.205Z,101164.53
2023-05-09T14:31:05.004Z,101167.19
2023-05-09T14:33:32.813Z,101156.66
2023-05-09T14:36:01.194Z,101156.50
2023-05-09T14:38:27.755Z,101151.13
2023-05-09T14:40:54.435Z,101139.59
2023-05-09T14:43:22.277Z,101140.44
2023-05-09T14:45:48.895Z,101140.44
2023-05-09T14:48:16.272Z,101141.94
2023-05-09T14:50:42.894Z,101143.94
2023-05-09T14:53:11.082Z,101135.91
2023-05-09T14:55:37.739Z,101135.91
2023-05-09T14:58:04.329Z,101128.72
2023-05-09T15:00:30.962Z,101134.06
2023-05-09T15:02:57.761Z,101124.38
2023-05-09T15:05:24.570Z,101119.84
2023-05-09T15:07:51.100Z,101126.88
2023-05-09T15:10:17.874Z,101117.34
2023-05-09T15:12:44.875Z,101111.81
2023-05-09T15:15:15.886Z,101121.53
2023-05-09T15:17:44.123Z,101104.97
2023-05-09T15:20:15.442Z,101114.50
2023-05-09T15:22:42.412Z,101107.47
2023-05-09T15:25:09.524Z,101098.59
2023-05-09T15:27:36.442Z,101104.78
2023-05-09T15:30:03.989Z,101110.97
2023-05-09T15:32:30.615Z,101106.47
2023-05-09T15:34:57.199Z,101117.34
2023-05-09T15:37:23.928Z,101110.13
2023-05-09T15:39:50.563Z,101103.94
2023-05-09T15:42:19.070Z,101095.09
2023-05-09T15:44:47.234Z,101099.59
2023-05-09T15:47:13.876Z,101093.41
2023-05-09T15:49:40.697Z,101098.75
2023-05-09T15:52:08.357Z,101089.91
2023-05-09T15:54:35.941Z,101101.44
2023-05-09T15:57:03.739Z,101092.56
2023-05-09T15:59:30.545Z,101087.22
2023-05-09T16:01:57.177Z,101086.38
2023-05-09T16:04:24.529Z,101093.41
2023-05-09T16:06:51.822Z,101075.69
2023-05-09T16:09:19.428Z,101073.16
2023-05-09T16:11:46.011Z,101082.88
2023-05-09T16:14:13.054Z,101083.88
2023-05-09T16:16:40.628Z,101080.38
2023-05-09T16:19:07.305Z,101073.50
2023-05-09T16:21:34.269Z,101072.66
2023-05-09T16:24:03.111Z,101070.00
2023-05-09T16:26:29.811Z,101065.47
2023-05-09T16:28:56.419Z,101070.00
2023-05-09T16:31:27.419Z,101068.16
2023-05-09T16:33:54.341Z,101066.47
2023-05-09T16:36:22.027Z,101062.97
2023-05-09T16:38:48.755Z,101058.66
2023-05-09T16:41:15.960Z,101054.13
2023-05-09T16:43:42.765Z,101057.81
2023-05-09T16:46:09.609Z,101046.91
2023-05-09T16:48:36.282Z,101049.78
2023-05-09T16:51:03.305Z,101039.91
2023-05-09T16:53:29.887Z,101051.47
2023-05-09T16:55:56.883Z,101039.91
2023-05-09T16:58:23.724Z,101039.72
2023-05-09T17:00:50.885Z,101042.59
2023-05-09T17:03:17.591Z,101038.06
2023-05-09T17:05:44.266Z,101038.06
2023-05-09T17:08:11.464Z,101038.88
2023-05-09T17:10:39.487Z,101032.72
2023-05-09T17:13:08.831Z,101034.56
2023-05-09T17:15:35.772Z,101023.84
2023-05-09T17:18:03.174Z,101027.38
2023-05-09T17:20:30.099Z,101029.22
2023-05-09T17:22:57.769Z,101028.19
2023-05-09T17:25:24.358Z,101025.69
2023-05-09T17:27:50.881Z,101023.84
2023-05-09T17:30:18.366Z,101026.53
2023-05-09T17:32:46.774Z,101031.22
2023-05-09T17:35:13.846Z,101029.38
2023-05-09T17:37:40.944Z,101024.84
2023-05-09T17:40:08.072Z,101025.88
2023-05-09T17:42:34.784Z,101017.00
2023-05-09T17:45:01.294Z,101023.19
2023-05-09T17:47:28.883Z,101022.34
2023-05-09T17:49:55.592Z,101015.34
2023-05-09T17:52:22.156Z,101016.34
2023-05-09T17:54:48.861Z,101017.00
2023-05-09T17:57:15.396Z,101018.00
2023-05-09T17:59:42.036Z,101016.16
2023-05-09T18:02:08.703Z,101016.34
2023-05-09T18:04:35.460Z,101018.19
2023-05-09T18:07:02.230Z,101014.84
2023-05-09T18:09:28.802Z,101019.53
2023-05-09T18:11:55.377Z,101016.00
2023-05-09T18:14:21.925Z,101019.69
2023-05-09T18:16:48.484Z,101023.88
2023-05-09T18:19:15.024Z,101017.00
2023-05-09T18:21:41.600Z,101014.34
2023-05-09T18:24:09.317Z,101020.53
2023-05-09T18:26:36.041Z,101017.00
2023-05-09T18:29:02.685Z,101015.34
2023-05-09T18:31:31.231Z,101018.84
2023-05-09T18:33:57.884Z,101019.69
2023-05-09T18:36:24.518Z,101020.69
2023-05-09T18:38:51.078Z,101018.00
2023-05-09T18:41:17.623Z,101020.06
2023-05-09T18:43:46.942Z,101018.22
2023-05-09T18:46:20.896Z,101021.72
2023-05-09T18:48:50.386Z,101020.06
2023-05-09T18:51:18.261Z,101018.22
2023-05-09T18:53:45.042Z,101013.19
2023-05-09T18:56:11.598Z,101010.53
2023-05-09T18:58:38.250Z,101023.06
2023-05-09T19:01:05.599Z,101016.88
2023-05-09T19:03:32.273Z,101025.75
2023-05-09T19:05:59.780Z,101018.56
2023-05-09T19:08:26.998Z,101017.72
2023-05-09T19:10:53.589Z,101022.41
2023-05-09T19:13:20.516Z,101022.56
2023-05-09T19:15:47.469Z,101016.84
2023-05-09T19:18:14.283Z,101028.94
2023-05-09T19:20:40.917Z,101020.06
2023-05-09T19:23:07.452Z,101033.44
2023-05-09T19:25:34.132Z,101026.41
2023-05-09T19:28:00.786Z,101031.06
2023-05-09T19:30:27.317Z,101036.41
2023-05-09T19:32:53.921Z,101040.63
2023-05-09T19:35:20.796Z,101038.97
2023-05-09T19:37:47.454Z,101036.63
2023-05-09T19:40:14.295Z,101042.47
2023-05-09T19:42:41.948Z,101036.28
2023-05-09T19:45:09.061Z,101039.28
2023-05-09T19:47:35.728Z,101045.63
2023-05-09T19:50:02.400Z,101047.81
2023-05-09T19:52:29.684Z,101050.69
2023-05-09T19:54:56.233Z,101055.19
2023-05-09T19:57:22.857Z,101047.69
2023-05-09T19:59:49.410Z,101051.34
2023-05-09T20:02:15.949Z,101052.19
2023-05-09T20:04:49.542Z,101054.34
2023-05-09T20:07:17.643Z,101061.06
2023-05-09T20:09:44.365Z,101061.22
2023-05-09T20:12:11.118Z,101066.75
2023-05-09T20:14:37.769Z,101063.41
2023-05-09T20:17:05.391Z,101060.22
2023-05-09T20:19:33.180Z,101070.25
2023-05-09T20:22:01.216Z,101066.09
2023-05-09T20:24:28.625Z,101072.44
2023-05-09T20:26:55.261Z,101071.59
2023-05-09T20:29:21.992Z,101071.09
2023-05-09T20:31:48.620Z,101069.59
2023-05-09T20:34:17.884Z,101066.75
2023-05-09T20:36:48.411Z,101074.09
2023-05-09T20:39:17.780Z,101073.44
2023-05-09T20:41:48.100Z,101073.59
2023-05-09T20:44:15.434Z,101073.06
2023-05-09T20:46:42.287Z,101074.06
2023-05-09T20:49:09.572Z,101079.94
2023-05-09T20:51:36.142Z,101080.94
2023-05-09T20:54:03.144Z,101076.59
2023-05-09T20:56:29.963Z,101077.59
2023-05-09T20:58:59.821Z,101083.94
2023-05-09T21:01:27.137Z,101082.44
2023-05-09T21:03:53.695Z,101079.78
2023-05-09T21:06:20.245Z,101084.75
2023-05-09T21:08:46.810Z,101081.25
2023-05-09T21:11:13.818Z,101077.25
2023-05-09T21:13:40.411Z,101077.25
2023-05-09T21:16:07.140Z,101080.75
2023-05-09T21:18:33.657Z,101078.91
2023-05-09T21:21:02.714Z,101078.22
2023-05-09T21:23:29.292Z,101075.56
2023-05-09T21:25:55.820Z,101076.59
2023-05-09T21:28:22.360Z,101071.41
2023-05-09T21:30:52.982Z,101076.75
2023-05-09T21:33:19.972Z,101077.59
2023-05-09T21:35:47.147Z,101069.69
2023-05-09T21:38:14.218Z,101073.38
2023-05-09T21:40:41.283Z,101067.34
2023-05-09T21:43:07.809Z,101057.00
2023-05-09T21:45:34.377Z,101065.69
2023-05-09T21:48:00.964Z,101061.34
2023-05-09T21:50:27.634Z,101067.50
2023-05-09T21:52:56.215Z,101057.97
2023-05-09T21:55:23.033Z,101060.81
2023-05-09T21:57:49.569Z,101058.16
2023-05-09T22:00:17.082Z,101049.47
2023-05-09T22:02:44.290Z,101055.31
2023-05-09T22:05:11.750Z,101048.81
2023-05-09T22:07:38.585Z,101052.97
2023-05-09T22:10:05.689Z,101053.16
2023-05-09T22:12:32.260Z,101044.78
2023-05-09T22:14:59.114Z,101051.47
2023-05-09T22:17:26.094Z,101050.66
2023-05-09T22:19:52.697Z,101057.66
2023-05-09T22:22:19.566Z,101061.16
2023-05-09T22:24:46.236Z,101056.16
2023-05-09T22:27:12.915Z,101055.81
2023-05-09T22:29:39.434Z,101046.97
2023-05-09T22:32:08.263Z,101050.47
2023-05-09T22:34:35.352Z,101046.97
2023-05-09T22:37:01.898Z,101052.81
2023-05-09T22:39:28.509Z,101046.63
2023-05-09T22:41:55.042Z,101042.28
2023-05-09T22:44:21.937Z,101039.28
2023-05-09T22:46:48.472Z,101048.97
2023-05-09T22:49:15.068Z,101044.63
2023-05-09T22:51:42.250Z,101043.78
2023-05-09T22:54:09.062Z,101039.13
2023-05-09T22:56:35.586Z,101041.13
2023-05-09T22:59:02.190Z,101046.31
2023-05-09T23:01:28.848Z,101044.78
2023-05-09T23:03:55.392Z,101043.63
2023-05-09T23:06:21.941Z,101043.78
2023-05-09T23:08:48.522Z,101049.81
2023-05-09T23:11:15.047Z,101041.13
2023-05-09T23:13:42.297Z,101047.13
2023-05-09T23:16:08.918Z,101049.81
2023-05-09T23:18:35.815Z,101048.97
2023-05-09T23:21:02.363Z,101040.97
2023-05-09T23:23:29.027Z,101047.31
2023-05-09T23:25:55.560Z,101044.47
2023-05-09T23:28:25.097Z,101042.94
2023-05-09T23:30:53.311Z,101037.78
2023-05-09T23:33:20.418Z,101043.94
2023-05-09T23:35:47.927Z,101042.28
2023-05-09T23:38:14.500Z,101035.09
2023-05-09T23:40:45.406Z,101051.31
2023-05-09T23:43:13.278Z,101040.78
2023-05-09T23:45:42.615Z,101039.28
2023-05-09T23:48:09.250Z,101045.31
2023-05-09T23:50:35.831Z,101038.28
2023-05-09T23:53:04.850Z,101045.31
2023-05-09T23:55:31.566Z,101040.78
2023-05-09T23:57:58.244Z,101032.09
